createdAt,value
2022-09-11T00:02:34.502Z,0.90
2022-09-11T00:05:23.281Z,1.00
2022-09-11T00:08:12.620Z,1.20
2022-09-11T00:11:06.061Z,1.20
2022-09-11T00:13:54.253Z,1.50
2022-09-11T00:16:44.978Z,1.05
2022-09-11T00:19:32.174Z,1.00
2022-09-11T00:22:20.533Z,1.00
2022-09-11T00:25:07.933Z,1.27
2022-09-11T00:27:56.078Z,1.40
2022-09-11T00:30:43.448Z,1.10
2022-09-11T00:33:31.096Z,1.20
2022-09-11T00:36:20.027Z,1.15
2022-09-11T00:39:08.820Z,1.10
2022-09-11T00:41:56.448Z,1.10
2022-09-11T00:45:01.558Z,1.30
2022-09-11T00:47:50.176Z,1.33
2022-09-11T00:50:37.258Z,1.20
2022-09-11T00:53:28.056Z,1.00
2022-09-11T00:56:16.881Z,1.30
2022-09-11T00:59:05.562Z,1.02
2022-09-11T01:01:52.657Z,0.88
2022-09-11T01:04:40.201Z,1.20
2022-09-11T01:07:29.692Z,1.27
2022-09-11T01:10:16.673Z,1.17
2022-09-11T01:13:14.464Z,1.20
2022-09-11T01:16:10.760Z,1.25
2022-09-11T01:19:08.966Z,1.65
2022-09-11T01:22:12.325Z,1.30
2022-09-11T01:25:10.877Z,1.30
2022-09-11T01:28:01.336Z,1.27
2022-09-11T01:30:56.527Z,1.20
2022-09-11T01:33:48.998Z,1.15
2022-09-11T01:36:42.058Z,1.10
2022-09-11T01:39:35.179Z,1.48
2022-09-11T01:42:26.331Z,1.17
2022-09-11T01:45:17.238Z,1.10
2022-09-11T01:48:04.703Z,1.42
2022-09-11T01:50:54.293Z,1.10
2022-09-11T01:53:50.163Z,1.20
2022-09-11T01:56:42.071Z,1.25
2022-09-11T01:59:37.592Z,1.20
2022-09-11T02:02:30.874Z,1.15
2022-09-11T02:05:23.359Z,1.15
2022-09-11T02:08:16.656Z,1.30
2022-09-11T02:11:09.241Z,1.23
2022-09-11T02:14:04.047Z,1.20
2022-09-11T02:17:01.654Z,0.90
2022-09-11T02:19:50.693Z,1.30
2022-09-11T02:22:37.925Z,1.30
2022-09-11T02:25:25.076Z,1.30
2022-09-11T02:28:16.151Z,1.10
2022-09-11T02:31:03.849Z,1.52
2022-09-11T02:33:51.540Z,1.30
2022-09-11T02:36:56.564Z,1.30
2022-09-11T02:40:08.138Z,1.20
2022-09-11T02:43:13.610Z,1.20
2022-09-11T02:46:23.823Z,1.35
2022-09-11T02:49:26.580Z,1.33
2022-09-11T02:52:27.683Z,1.50
2022-09-11T02:55:23.395Z,1.20
2022-09-11T02:58:17.758Z,1.40
2022-09-11T03:01:06.167Z,1.30
2022-09-11T03:03:53.115Z,1.30
2022-09-11T03:06:43.336Z,1.52
2022-09-11T03:09:33.795Z,1.40
2022-09-11T03:12:27.229Z,1.20
2022-09-11T03:15:14.328Z,1.20
2022-09-11T03:18:03.327Z,1.13
2022-09-11T03:20:50.224Z,1.20
2022-09-11T03:23:37.082Z,1.10
2022-09-11T03:26:29.608Z,1.33
2022-09-11T03:29:17.943Z,1.00
2022-09-11T03:32:05.273Z,1.55
2022-09-11T03:34:53.682Z,1.25
2022-09-11T03:37:40.623Z,1.20
2022-09-11T03:40:27.764Z,1.20
2022-09-11T03:43:16.964Z,1.27
2022-09-11T03:46:04.343Z,1.10
2022-09-11T03:48:52.615Z,1.10
2022-09-11T03:51:41.746Z,1.30
2022-09-11T03:54:28.936Z,1.30
2022-09-11T03:57:16.217Z,1.35
2022-09-11T04:00:06.878Z,1.02
2022-09-11T04:03:07.654Z,1.05
2022-09-11T04:06:03.668Z,1.27
2022-09-11T04:08:52.885Z,1.13
2022-09-11T04:11:40.374Z,1.40
2022-09-11T04:14:36.190Z,1.33
2022-09-11T04:17:25.904Z,1.08
2022-09-11T04:20:14.058Z,2.28
2022-09-11T04:23:03.062Z,1.48
2022-09-11T04:25:51.169Z,1.65
2022-09-11T04:28:38.143Z,1.13
2022-09-11T04:31:26.744Z,1.30
2022-09-11T04:34:15.225Z,1.25
2022-09-11T04:37:03.333Z,1.40
2022-09-11T04:39:52.143Z,1.42
2022-09-11T04:42:38.815Z,1.10
2022-09-11T04:45:25.698Z,1.40
2022-09-11T04:48:14.286Z,1.38
2022-09-11T04:51:06.835Z,1.33
2022-09-11T04:53:57.734Z,1.25
2022-09-11T04:56:50.964Z,1.17
2022-09-11T04:59:39.009Z,1.77
2022-09-11T05:02:29.435Z,1.70
2022-09-11T05:05:16.447Z,1.20
2022-09-11T05:08:06.021Z,1.30
2022-09-11T05:10:53.171Z,1.70
2022-09-11T05:13:42.266Z,1.50
2022-09-11T05:16:30.575Z,1.45
2022-09-11T05:19:19.350Z,1.30
2022-09-11T05:22:07.052Z,1.20
2022-09-11T05:24:58.484Z,1.55
2022-09-11T05:27:46.052Z,1.38
2022-09-11T05:30:33.062Z,1.52
2022-09-11T05:33:20.253Z,1.40
2022-09-11T05:36:08.343Z,1.88
2022-09-11T05:38:55.663Z,1.20
2022-09-11T05:41:44.414Z,1.42
2022-09-11T05:44:32.968Z,1.63
2022-09-11T05:47:20.714Z,1.50
2022-09-11T05:50:10.488Z,1.30
2022-09-11T05:52:57.828Z,1.40
2022-09-11T05:55:44.660Z,1.55
2022-09-11T05:58:34.331Z,1.45
2022-09-11T06:01:23.994Z,1.40
2022-09-11T06:04:19.820Z,1.42
2022-09-11T06:07:08.977Z,1.48
2022-09-11T06:10:02.353Z,1.35
2022-09-11T06:12:54.014Z,1.50
2022-09-11T06:15:47.293Z,1.55
2022-09-11T06:21:24.736Z,1.10
2022-09-11T06:24:20.536Z,1.50
2022-09-11T06:27:07.673Z,1.42
2022-09-11T06:30:00.118Z,1.30
2022-09-11T06:32:51.905Z,1.50
2022-09-11T06:35:41.121Z,1.30
2022-09-11T06:38:29.995Z,1.50
2022-09-11T06:41:19.318Z,1.90
2022-09-11T06:44:07.312Z,1.23
2022-09-11T06:46:54.529Z,1.38
2022-09-11T06:49:42.777Z,1.48
2022-09-11T06:52:45.878Z,1.17
2022-09-11T06:55:43.290Z,1.35
2022-09-11T06:58:35.278Z,1.58
2022-09-11T07:01:24.480Z,1.30
2022-09-11T07:04:19.582Z,1.45
2022-09-11T07:07:10.621Z,1.40
2022-09-11T07:10:01.256Z,1.17
2022-09-11T07:12:49.426Z,1.30
2022-09-11T07:15:36.828Z,1.27
2022-09-11T07:18:39.285Z,1.63
2022-09-11T07:21:30.694Z,1.25
2022-09-11T07:24:22.935Z,1.90
2022-09-11T07:27:13.967Z,1.67
2022-09-11T07:30:03.505Z,1.60
2022-09-11T07:32:54.276Z,1.70
2022-09-11T07:35:41.350Z,1.70
2022-09-11T07:38:32.091Z,1.95
2022-09-11T07:41:24.369Z,1.83
2022-09-11T07:44:16.651Z,2.00
2022-09-11T07:47:04.228Z,2.10
2022-09-11T07:49:56.143Z,1.83
2022-09-11T07:52:44.694Z,2.00
2022-09-11T07:55:35.182Z,2.03
2022-09-11T07:58:24.686Z,2.50
2022-09-11T08:01:14.811Z,2.22
2022-09-11T08:04:04.392Z,2.47
2022-09-11T08:06:51.642Z,2.45
2022-09-11T08:09:46.601Z,2.58
2022-09-11T08:12:34.813Z,2.55
2022-09-11T08:15:23.485Z,2.67
2022-09-11T08:18:10.457Z,2.75
2022-09-11T08:21:04.769Z,2.50
2022-09-11T08:26:39.732Z,2.70
2022-09-11T08:29:26.671Z,2.83
2022-09-11T08:32:16.201Z,3.33
2022-09-11T08:35:04.119Z,2.90
2022-09-11T08:37:54.888Z,2.88
2022-09-11T08:40:43.178Z,3.05
2022-09-11T08:43:35.287Z,3.08
2022-09-11T08:46:25.210Z,3.30
2022-09-11T08:49:20.917Z,3.22
2022-09-11T08:52:12.464Z,3.25
2022-09-11T08:55:00.592Z,3.20
2022-09-11T08:57:55.280Z,3.40
2022-09-11T09:00:56.389Z,3.10
2022-09-11T09:04:00.065Z,3.08
2022-09-11T09:07:04.489Z,3.38
2022-09-11T09:10:02.528Z,3.17
2022-09-11T09:12:59.482Z,3.42
2022-09-11T09:15:54.806Z,3.33
2022-09-11T09:18:47.637Z,4.53
2022-09-11T09:21:42.353Z,3.10
2022-09-11T09:24:37.649Z,3.42
2022-09-11T09:27:31.171Z,3.00
2022-09-11T09:30:22.021Z,3.17
2022-09-11T09:33:27.653Z,3.58
2022-09-11T09:36:17.713Z,4.00
2022-09-11T09:39:12.266Z,3.67
2022-09-11T09:42:24.745Z,3.60
2022-09-11T09:45:21.563Z,3.85
2022-09-11T09:48:11.968Z,3.95
2022-09-11T09:50:59.135Z,4.05
2022-09-11T09:54:00.503Z,4.13
2022-09-11T09:56:57.010Z,3.75
2022-09-11T09:59:50.972Z,4.00
2022-09-11T10:02:40.807Z,3.90
2022-09-11T10:05:29.512Z,3.35
2022-09-11T10:08:31.386Z,3.85
2022-09-11T10:11:29.852Z,3.38
2022-09-11T10:14:49.320Z,3.58
2022-09-11T10:17:35.288Z,3.63
2022-09-11T10:20:26.962Z,4.22
2022-09-11T10:23:25.718Z,3.90
2022-09-11T10:26:17.825Z,4.35
2022-09-11T10:29:14.138Z,4.35
2022-09-11T10:32:03.621Z,4.25
2022-09-11T10:34:51.455Z,4.57
2022-09-11T10:37:39.258Z,5.07
2022-09-11T10:40:26.280Z,4.70
2022-09-11T10:43:24.772Z,4.60
2022-09-11T10:46:40.096Z,5.00
2022-09-11T10:49:27.351Z,5.65
2022-09-11T10:52:20.052Z,6.00
2022-09-11T10:55:15.960Z,4.55
2022-09-11T10:58:10.218Z,5.22
2022-09-11T11:00:58.512Z,5.38
2022-09-11T11:03:47.572Z,5.40
2022-09-11T11:06:51.082Z,5.20
2022-09-11T11:09:50.647Z,4.30
2022-09-11T11:12:50.387Z,4.25
2022-09-11T11:15:52.349Z,3.85
2022-09-11T11:18:54.907Z,3.63
2022-09-11T11:21:54.717Z,4.30
2022-09-11T11:24:53.987Z,4.60
2022-09-11T11:27:58.319Z,4.65
2022-09-11T11:30:56.968Z,4.03
2022-09-11T11:34:01.518Z,4.30
2022-09-11T11:36:53.388Z,3.95
2022-09-11T11:39:53.490Z,6.13
2022-09-11T11:42:47.000Z,5.78
2022-09-11T11:45:38.306Z,5.90
2022-09-11T11:48:31.846Z,5.13
2022-09-11T11:51:25.016Z,5.38
2022-09-11T11:54:19.500Z,5.68
2022-09-11T11:57:12.975Z,4.70
2022-09-11T12:00:08.905Z,5.20
2022-09-11T12:03:07.865Z,5.78
2022-09-11T12:05:55.377Z,6.88
2022-09-11T12:08:47.026Z,6.28
2022-09-11T12:11:34.943Z,5.20
2022-09-11T12:14:28.668Z,4.82
2022-09-11T12:17:24.362Z,4.82
2022-09-11T12:20:29.930Z,5.43
2022-09-11T12:23:35.991Z,4.90
2022-09-11T12:26:22.880Z,4.50
2022-09-11T12:29:41.083Z,4.00
2022-09-11T12:32:43.093Z,4.30
2022-09-11T12:35:41.644Z,3.97
2022-09-11T12:38:35.665Z,3.63
2022-09-11T12:41:28.195Z,3.63
2022-09-11T12:44:32.206Z,3.30
2022-09-11T12:47:21.796Z,3.10
2022-09-11T12:50:19.234Z,3.25
2022-09-11T12:53:16.727Z,2.92
2022-09-11T12:56:06.610Z,4.03
2022-09-11T12:58:56.013Z,3.90
2022-09-11T13:01:45.655Z,3.78
2022-09-11T13:04:35.015Z,3.47
2022-09-11T13:07:31.475Z,3.67
2022-09-11T13:10:33.542Z,3.65
2022-09-11T13:13:41.736Z,3.22
2022-09-11T13:16:28.693Z,3.78
2022-09-11T13:19:18.056Z,2.80
2022-09-11T13:22:23.586Z,3.00
2022-09-11T13:25:14.838Z,2.88
2022-09-11T13:28:03.549Z,3.00
2022-09-11T13:30:58.262Z,2.70
2022-09-11T13:33:50.214Z,2.58
2022-09-11T13:36:38.502Z,2.78
2022-09-11T13:39:27.914Z,2.60
2022-09-11T13:42:17.961Z,3.05
2022-09-11T13:45:06.870Z,2.72
2022-09-11T13:47:54.904Z,2.20
2022-09-11T13:50:41.933Z,2.58
2022-09-11T13:53:29.251Z,2.80
2022-09-11T13:56:36.432Z,3.00
2022-09-11T13:59:36.426Z,2.53
2022-09-11T14:02:41.820Z,2.45
2022-09-11T14:05:32.099Z,2.85
2022-09-11T14:08:25.176Z,2.40
2022-09-11T14:14:08.666Z,2.80
2022-09-11T14:17:01.427Z,2.53
2022-09-11T14:19:52.560Z,2.35
2022-09-11T14:22:39.691Z,2.05
2022-09-11T14:25:26.685Z,2.30
2022-09-11T14:28:35.785Z,2.40
2022-09-11T14:31:38.787Z,2.15
2022-09-11T14:34:28.074Z,2.20
2022-09-11T14:37:19.222Z,2.55
2022-09-11T14:40:10.599Z,2.38
2022-09-11T14:42:57.604Z,2.67
2022-09-11T14:45:44.575Z,2.10
2022-09-11T14:48:33.226Z,2.10
2022-09-11T14:51:20.834Z,1.70
2022-09-11T14:54:15.538Z,1.67
2022-09-11T14:57:03.738Z,2.20
2022-09-11T14:59:51.601Z,2.13
2022-09-11T15:02:39.284Z,1.75
2022-09-11T15:05:27.138Z,2.00
2022-09-11T15:08:14.293Z,2.10
2022-09-11T15:11:02.555Z,2.10
2022-09-11T15:14:13.444Z,1.70
2022-09-11T15:16:59.615Z,2.15
2022-09-11T15:19:47.445Z,1.90
2022-09-11T15:22:35.480Z,2.40
2022-09-11T15:25:23.226Z,2.17
2022-09-11T15:28:11.538Z,2.80
2022-09-11T15:31:01.407Z,2.42
2022-09-11T15:33:51.983Z,2.47
2022-09-11T15:36:41.662Z,2.50
2022-09-11T15:39:29.121Z,2.55
2022-09-11T15:42:15.852Z,2.50
2022-09-11T15:45:04.533Z,2.45
2022-09-11T15:47:51.449Z,2.40
2022-09-11T15:50:38.677Z,2.42
2022-09-11T15:53:25.855Z,2.65
2022-09-11T15:56:18.693Z,2.50
2022-09-11T15:59:07.076Z,2.50
2022-09-11T16:01:55.811Z,2.15
2022-09-11T16:04:42.705Z,2.38
2022-09-11T16:07:29.808Z,2.20
2022-09-11T16:10:16.910Z,2.00
2022-09-11T16:13:04.909Z,2.70
2022-09-11T16:16:04.256Z,2.42
2022-09-11T16:18:53.518Z,2.70
2022-09-11T16:21:41.039Z,2.70
2022-09-11T16:24:29.669Z,2.42
2022-09-11T16:27:16.522Z,2.63
2022-09-11T16:33:12.076Z,2.40
2022-09-11T16:36:03.209Z,2.35
2022-09-11T16:38:52.535Z,2.25
2022-09-11T16:41:40.315Z,2.30
2022-09-11T16:44:28.525Z,2.42
2022-09-11T16:47:16.670Z,2.38
2022-09-11T16:50:08.158Z,2.40
2022-09-11T16:52:56.835Z,2.50
2022-09-11T16:55:44.109Z,2.60
2022-09-11T16:58:31.253Z,2.67
2022-09-11T17:01:20.163Z,2.78
2022-09-11T17:04:07.431Z,2.45
2022-09-11T17:06:54.451Z,2.72
2022-09-11T17:09:43.613Z,2.47
2022-09-11T17:12:30.682Z,2.50
2022-09-11T17:15:19.594Z,2.53
2022-09-11T17:18:06.688Z,2.80
2022-09-11T17:20:59.073Z,2.63
2022-09-11T17:23:46.698Z,2.78
2022-09-11T17:26:36.261Z,2.80
2022-09-11T17:29:23.457Z,3.00
2022-09-11T17:32:27.159Z,2.78
2022-09-11T17:35:16.133Z,2.80
2022-09-11T17:38:03.907Z,2.90
2022-09-11T17:40:51.152Z,3.13
2022-09-11T17:43:40.722Z,3.60
2022-09-11T17:46:28.421Z,3.67
2022-09-11T17:49:15.554Z,3.20
2022-09-11T17:52:02.677Z,3.25
2022-09-11T17:54:50.226Z,3.15
2022-09-11T17:57:37.264Z,3.35
2022-09-11T18:00:25.871Z,3.50
2022-09-11T18:03:13.437Z,3.60
2022-09-11T18:06:01.734Z,3.80
2022-09-11T18:08:48.656Z,3.47
2022-09-11T18:11:35.510Z,3.78
2022-09-11T18:14:23.519Z,3.40
2022-09-11T18:17:12.167Z,3.78
2022-09-11T18:19:59.221Z,4.03
2022-09-11T18:22:46.497Z,4.00
2022-09-11T18:25:39.703Z,4.22
2022-09-11T18:28:29.736Z,4.55
2022-09-11T18:31:17.367Z,4.32
2022-09-11T18:34:06.621Z,4.30
2022-09-11T18:36:54.185Z,4.00
2022-09-11T18:39:41.033Z,3.90
2022-09-11T18:42:27.985Z,3.47
2022-09-11T18:45:14.897Z,3.70
2022-09-11T18:48:02.114Z,4.10
2022-09-11T18:50:51.355Z,3.72
2022-09-11T18:53:39.476Z,3.83
2022-09-11T18:56:29.360Z,3.22
2022-09-11T18:59:18.271Z,3.40
2022-09-11T19:02:05.618Z,3.30
2022-09-11T19:04:52.774Z,3.03
2022-09-11T19:07:41.402Z,3.20
2022-09-11T19:10:28.843Z,3.38
2022-09-11T19:13:15.683Z,4.28
2022-09-11T19:16:04.180Z,4.25
2022-09-11T19:18:50.955Z,3.28
2022-09-11T19:21:39.936Z,3.30
2022-09-11T19:24:30.356Z,2.95
2022-09-11T19:27:17.567Z,3.35
2022-09-11T19:30:07.007Z,3.15
2022-09-11T19:32:54.188Z,3.10
2022-09-11T19:35:41.520Z,2.88
2022-09-11T19:38:28.609Z,3.38
2022-09-11T19:41:19.271Z,3.28
2022-09-11T19:44:07.988Z,3.40
2022-09-11T19:46:56.410Z,3.33
2022-09-11T19:49:43.190Z,3.13
2022-09-11T19:52:32.979Z,3.20
2022-09-11T19:55:20.175Z,3.28
2022-09-11T19:58:09.854Z,3.63
2022-09-11T20:00:57.311Z,3.08
2022-09-11T20:03:45.875Z,3.10
2022-09-11T20:06:34.825Z,3.53
2022-09-11T20:09:37.269Z,3.10
2022-09-11T20:12:24.410Z,3.20
2022-09-11T20:15:13.368Z,3.20
2022-09-11T20:18:00.484Z,2.90
2022-09-11T20:20:48.921Z,4.00
2022-09-11T20:23:37.041Z,3.75
2022-09-11T20:26:26.142Z,3.38
2022-09-11T20:29:16.089Z,3.42
2022-09-11T20:32:04.630Z,3.78
2022-09-11T20:34:51.796Z,4.15
2022-09-11T20:37:39.061Z,3.55
2022-09-11T20:40:26.290Z,4.00
2022-09-11T20:43:13.314Z,3.70
2022-09-11T20:46:00.659Z,3.85
2022-09-11T20:48:51.325Z,3.50
2022-09-11T20:51:38.467Z,3.60
2022-09-11T20:54:25.317Z,3.35
2022-09-11T20:57:12.516Z,3.60
2022-09-11T21:00:00.556Z,3.72
2022-09-11T21:02:47.625Z,3.80
2022-09-11T21:05:36.706Z,3.70
2022-09-11T21:08:25.758Z,3.75
2022-09-11T21:11:13.483Z,3.78
2022-09-11T21:14:01.215Z,3.78
2022-09-11T21:16:48.598Z,3.35
2022-09-11T21:19:36.067Z,3.72
2022-09-11T21:22:24.791Z,3.67
2022-09-11T21:25:12.005Z,4.15
2022-09-11T21:27:59.210Z,4.60
2022-09-11T21:30:46.413Z,3.80
2022-09-11T21:33:34.729Z,4.35
2022-09-11T21:36:22.025Z,3.47
2022-09-11T21:39:10.463Z,3.90
2022-09-11T21:41:57.485Z,4.15
2022-09-11T21:44:44.846Z,4.57
2022-09-11T21:47:31.963Z,3.60
2022-09-11T21:50:19.091Z,3.72
2022-09-11T21:53:07.290Z,4.10
2022-09-11T21:55:55.467Z,4.40
2022-09-11T21:58:42.847Z,4.07
2022-09-11T22:01:31.967Z,3.90
2022-09-11T22:04:19.330Z,4.00
2022-09-11T22:07:06.627Z,4.22
2022-09-11T22:09:53.602Z,4.05
2022-09-11T22:12:41.899Z,3.97
2022-09-11T22:15:28.900Z,4.00
2022-09-11T22:18:16.842Z,4.05
2022-09-11T22:21:05.078Z,3.50
2022-09-11T22:23:52.573Z,3.72
2022-09-11T22:26:39.753Z,3.53
2022-09-11T22:29:28.217Z,3.80
2022-09-11T22:32:15.315Z,3.58
2022-09-11T22:35:02.377Z,3.50
2022-09-11T22:37:49.474Z,4.30
2022-09-11T22:40:36.950Z,3.38
2022-09-11T22:43:24.235Z,3.58
2022-09-11T22:46:12.900Z,3.40
2022-09-11T22:48:59.674Z,3.13
2022-09-11T22:51:46.557Z,3.30
2022-09-11T22:54:33.346Z,2.85
2022-09-11T22:57:20.461Z,3.05
2022-09-11T23:00:10.127Z,2.85
2022-09-11T23:02:58.431Z,3.65
2022-09-11T23:05:59.419Z,2.78
2022-09-11T23:08:46.433Z,3.55
2022-09-11T23:11:32.792Z,3.53
2022-09-11T23:14:18.350Z,3.10
2022-09-11T23:17:05.994Z,3.05
2022-09-11T23:19:54.492Z,3.25
2022-09-11T23:22:41.261Z,3.08
2022-09-11T23:25:28.262Z,3.20
2022-09-11T23:28:15.332Z,2.90
2022-09-11T23:31:03.757Z,3.20
2022-09-11T23:33:50.496Z,3.08
2022-09-11T23:36:38.895Z,2.92
2022-09-11T23:39:26.989Z,2.90
2022-09-11T23:42:13.785Z,2.65
2022-09-11T23:45:00.628Z,2.60
2022-09-11T23:47:47.561Z,2.83
2022-09-11T23:50:34.509Z,2.90
2022-09-11T23:53:23.247Z,2.80
2022-09-11T23:56:11.710Z,2.92
2022-09-11T23:58:59.048Z,2.80
